Time;durP1;ratioP1;P1;durP2;ratioP2;P2;SDS_P1;SDS_P2;PMS_P1;PMS_P2;Temp;Humidity;BMP_temperature;BMP_pressure;BME280_temperature;BME280_humidity;BME280_pressure;Samples;Min_cycle;Max_cycle;Signal;HPM_P1;HPM_P2
2022/11/24 00:01:04;;;;;;;;;;;;;;;4.15;75.49;100646.41;5105965;27;19923;-56
2022/11/24 00:03:29;;;;;;;;;;;;;;;4.17;75.62;100652.41;5109609;27;19920;-57
2022/11/24 00:05:55;;;;;;;;;;;;;;;4.14;75.72;100649.06;5109701;27;19946;-57
2022/11/24 00:08:20;;;;;;;;;;;;;;;4.18;75.45;100654.09;5104456;27;19922;-58
2022/11/24 00:10:45;;;;;;;;;;;;;;;4.22;75.10;100668.75;5109467;28;19922;-56
2022/11/24 00:13:11;;;;;;;;;;;;;;;4.23;75.24;100662.63;5108370;27;19924;-56
2022/11/24 00:15:36;;;;;;;;;;;;;;;4.24;74.93;100655.66;5108168;28;19916;-56
2022/11/24 00:18:01;;;;;;;;;;;;;;;4.23;75.28;100654.81;5106397;28;20306;-56
2022/11/24 00:20:27;;;;;;;;;;;;;;;4.25;75.15;100654.75;5103597;27;20010;-60
2022/11/24 00:22:52;;;;;;;;;;;;;;;4.21;75.22;100654.00;5106651;28;20310;-56
2022/11/24 00:25:17;;;;;;;;;;;;;;;4.23;74.93;100654.81;5109971;27;19923;-56
2022/11/24 00:27:43;;;;;;;;;;;;;;;4.26;75.39;100651.25;5105877;27;19923;-56
2022/11/24 00:30:09;;;;;;;;;;;;;;;4.25;74.89;100644.34;5108765;27;19923;-56
2022/11/24 00:32:34;;;;;;;;;;;;;;;4.25;75.09;100645.19;5101949;28;19951;-57
2022/11/24 00:34:59;;;;;;;;;;;;;;;4.26;75.18;100649.50;5104891;28;19927;-57
2022/11/24 00:37:25;;;;;;;;;;;;;;;4.26;75.01;100657.31;5105266;28;19966;-56
2022/11/24 00:39:50;;;;;;;;;;;;;;;4.30;75.10;100655.47;5105501;27;19928;-56
2022/11/24 00:42:16;;;;;;;;;;;;;;;4.26;75.13;100652.13;5108094;27;19924;-56
2022/11/24 00:44:41;;;;;;;;;;;;;;;4.25;74.89;100646.94;5106631;28;19919;-57
2022/11/24 00:47:06;;;;;;;;;;;;;;;4.24;74.92;100645.22;5104761;28;19974;-57
2022/11/24 00:49:31;;;;;;;;;;;;;;;4.23;75.33;100635.75;5105275;27;19998;-58
2022/11/24 00:51:57;;;;;;;;;;;;;;;4.22;75.38;100639.25;5100983;28;19928;-57
2022/11/24 00:54:23;;;;;;;;;;;;;;;4.23;75.43;100633.13;5103333;27;19924;-56
2022/11/24 00:56:48;;;;;;;;;;;;;;;4.23;74.91;100631.38;5104405;27;19915;-55
2022/11/24 00:59:13;;;;;;;;;;;;;;;4.25;75.25;100637.38;5100739;27;20382;-56
2022/11/24 01:01:40;;;;;;;;;;;;;;;4.25;75.00;100628.72;5088905;28;19930;-57
2022/11/24 01:04:06;;;;;;;;;;;;;;;4.26;74.94;100641.69;5107611;28;19924;-56
2022/11/24 01:06:31;;;;;;;;;;;;;;;4.25;74.88;100632.19;5101452;28;19920;-56
2022/11/24 01:08:57;;;;;;;;;;;;;;;4.24;75.36;100632.22;5103081;28;19926;-57
2022/11/24 01:14:18;;;;;;;;;;;;;;;4.24;74.93;100633.09;5106278;27;19930;-56
2022/11/24 01:16:43;;;;;;;;;;;;;;;4.26;74.80;100630.41;5104170;28;19927;-56
2022/11/24 01:19:09;;;;;;;;;;;;;;;4.26;74.89;100635.63;5104085;27;19923;-57
2022/11/24 01:21:34;;;;;;;;;;;;;;;4.21;74.90;100633.16;5103387;28;19927;-57
2022/11/24 01:23:59;;;;;;;;;;;;;;;4.21;75.01;100635.78;5102903;27;19941;-56
2022/11/24 01:26:25;;;;;;;;;;;;;;;4.24;75.20;100632.22;5101202;28;20404;-56
2022/11/24 01:28:54;;;;;;;;;;;;;;;4.24;75.08;100640.03;5100828;27;19927;-56
2022/11/24 01:31:19;;;;;;;;;;;;;;;4.27;74.85;100643.41;5106600;28;20444;-57
2022/11/24 01:33:44;;;;;;;;;;;;;;;4.25;74.96;100645.19;5106551;28;19920;-58
2022/11/24 01:36:10;;;;;;;;;;;;;;;4.26;75.13;100641.69;5105517;27;19963;-56
2022/11/24 01:38:35;;;;;;;;;;;;;;;4.25;75.20;100636.53;5108532;28;19939;-58
2022/11/24 01:41:05;;;;;;;;;;;;;;;4.24;75.27;100648.72;5102073;28;19919;-55
2022/11/24 01:43:30;;;;;;;;;;;;;;;4.24;74.94;100648.72;5097478;28;19930;-56
2022/11/24 01:45:56;;;;;;;;;;;;;;;4.22;75.09;100660.94;5103420;27;19927;-56
2022/11/24 01:48:25;;;;;;;;;;;;;;;4.22;75.17;100660.09;5104161;27;19923;-56
2022/11/24 01:50:54;;;;;;;;;;;;;;;4.19;75.10;100650.59;5105958;27;20003;-58
2022/11/24 01:53:21;;;;;;;;;;;;;;;4.23;75.17;100662.63;5104196;27;19922;-58
2022/11/24 01:55:47;;;;;;;;;;;;;;;4.22;75.25;100660.94;5104659;27;19919;-56
2022/11/24 01:58:20;;;;;;;;;;;;;;;4.20;75.28;100656.69;5100731;28;20496;-56
2022/11/24 02:00:45;;;;;;;;;;;;;;;4.18;75.35;100650.66;5102944;28;19954;-56
2022/11/24 02:03:13;;;;;;;;;;;;;;;4.18;75.20;100663.69;5097329;27;20025;-57
2022/11/24 02:05:48;;;;;;;;;;;;;;;4.18;75.39;100654.09;5088051;28;19923;-60
2022/11/24 02:08:22;;;;;;;;;;;;;;;4.20;75.26;100662.72;5103698;27;19924;-55
2022/11/24 02:10:48;;;;;;;;;;;;;;;4.20;75.47;100667.09;5104193;28;19947;-54
2022/11/24 02:13:14;;;;;;;;;;;;;;;4.21;75.22;100659.22;5107457;28;19924;-57
2022/11/24 02:15:40;;;;;;;;;;;;;;;4.21;75.46;100656.63;5105260;27;20399;-61
2022/11/24 02:18:05;;;;;;;;;;;;;;;4.21;75.58;100663.59;5106117;27;19933;-60
2022/11/24 02:20:30;;;;;;;;;;;;;;;4.21;75.12;100656.63;5102173;27;19920;-56
2022/11/24 02:23:00;;;;;;;;;;;;;;;4.23;75.47;100667.84;5102549;27;19998;-60
2022/11/24 02:25:31;;;;;;;;;;;;;;;4.23;75.44;100660.03;5106955;27;19920;-58
2022/11/24 02:27:58;;;;;;;;;;;;;;;4.25;75.59;100673.84;5105577;27;19977;-57
2022/11/24 02:30:24;;;;;;;;;;;;;;;4.29;75.05;100673.75;5100391;27;19972;-58
2022/11/24 02:32:50;;;;;;;;;;;;;;;4.31;75.01;100669.34;5103906;27;19979;-58
2022/11/24 02:35:16;;;;;;;;;;;;;;;4.30;74.68;100667.66;5106186;27;19915;-58
2022/11/24 02:37:41;;;;;;;;;;;;;;;4.30;75.22;100668.50;5102536;27;19928;-61
2022/11/24 02:40:07;;;;;;;;;;;;;;;4.31;74.97;100675.41;5096655;28;19916;-55
2022/11/24 02:42:35;;;;;;;;;;;;;;;4.32;74.84;100669.28;5105989;28;19928;-56
2022/11/24 02:45:01;;;;;;;;;;;;;;;4.34;74.91;100674.44;5099988;27;19977;-58
2022/11/24 02:47:26;;;;;;;;;;;;;;;4.34;75.06;100679.66;5107452;28;20345;-58
2022/11/24 02:49:51;;;;;;;;;;;;;;;4.32;75.13;100673.63;5102851;28;19961;-58
2022/11/24 02:52:17;;;;;;;;;;;;;;;4.32;74.82;100671.03;5102460;28;19935;-55
2022/11/24 02:54:42;;;;;;;;;;;;;;;4.31;74.85;100679.78;5106610;28;19911;-57
2022/11/24 02:57:08;;;;;;;;;;;;;;;4.26;75.02;100675.56;5102677;28;19912;-58
2022/11/24 02:59:33;;;;;;;;;;;;;;;4.25;75.20;100675.59;5109629;27;20008;-57
2022/11/24 03:01:59;;;;;;;;;;;;;;;4.22;75.50;100679.16;5110200;27;19930;-56
2022/11/24 03:04:24;;;;;;;;;;;;;;;4.21;75.31;100674.00;5108454;27;19926;-56
2022/11/24 03:06:49;;;;;;;;;;;;;;;4.25;75.04;100675.59;5112069;27;19923;-57
2022/11/24 03:09:15;;;;;;;;;;;;;;;4.24;75.62;100666.06;5112725;27;19923;-57
2022/11/24 03:11:40;;;;;;;;;;;;;;;4.24;75.31;100672.16;5111440;27;19930;-58
2022/11/24 03:14:06;;;;;;;;;;;;;;;4.29;75.18;100665.94;5112351;27;20015;-56
2022/11/24 03:16:31;;;;;;;;;;;;;;;4.30;75.15;100667.66;5111534;27;19919;-56
2022/11/24 03:18:57;;;;;;;;;;;;;;;4.28;75.31;100672.91;5103644;27;20409;-56
2022/11/24 03:21:22;;;;;;;;;;;;;;;4.29;75.30;100666.78;5108309;27;19916;-56
2022/11/24 03:23:47;;;;;;;;;;;;;;;4.30;75.20;100673.69;5109811;27;19924;-57
2022/11/24 03:26:15;;;;;;;;;;;;;;;4.31;74.92;100670.19;5110116;27;19928;-56
2022/11/24 03:28:40;;;;;;;;;;;;;;;4.31;75.30;100674.56;5101075;27;19988;-56
2022/11/24 03:31:06;;;;;;;;;;;;;;;4.33;74.92;100673.59;5110534;27;20385;-58
2022/11/24 03:33:31;;;;;;;;;;;;;;;4.33;74.87;100677.94;5112820;27;19930;-60
2022/11/24 03:35:57;;;;;;;;;;;;;;;4.29;75.09;100676.38;5111263;27;20008;-59
2022/11/24 03:38:22;;;;;;;;;;;;;;;4.29;74.88;100679.81;5113676;27;20279;-57
2022/11/24 03:40:47;;;;;;;;;;;;;;;4.25;75.07;100666.03;5108497;27;20387;-57
2022/11/24 03:43:13;;;;;;;;;;;;;;;4.24;75.32;100679.97;5110371;27;19927;-56
2022/11/24 03:45:39;;;;;;;;;;;;;;;4.27;75.00;100685.09;5110068;27;19927;-57
2022/11/24 03:48:04;;;;;;;;;;;;;;;4.30;74.88;100685.88;5110849;27;19923;-56
2022/11/24 03:50:30;;;;;;;;;;;;;;;4.24;75.31;100687.78;5112075;27;19997;-57
2022/11/24 03:52:55;;;;;;;;;;;;;;;4.25;75.23;100686.88;5110834;27;19924;-56
2022/11/24 03:55:20;;;;;;;;;;;;;;;4.25;75.21;100681.66;5112508;27;19927;-57
2022/11/24 03:57:46;;;;;;;;;;;;;;;4.27;74.98;100690.28;5107257;27;19999;-58
2022/11/24 04:00:12;;;;;;;;;;;;;;;4.27;74.90;100690.28;5109467;27;19919;-57
2022/11/24 04:02:37;;;;;;;;;;;;;;;4.26;75.25;100690.31;5111147;27;19916;-56
2022/11/24 04:05:03;;;;;;;;;;;;;;;4.26;75.08;100698.13;5112351;27;19919;-56
2022/11/24 04:07:29;;;;;;;;;;;;;;;4.23;74.90;100704.31;5112008;27;19924;-57
2022/11/24 04:09:54;;;;;;;;;;;;;;;4.24;75.13;100705.16;5107971;27;19927;-58
2022/11/24 04:15:04;;;;;;;;;;;;;;;4.21;74.77;100726.94;5104129;28;19951;-56
2022/11/24 04:17:29;;;;;;;;;;;;;;;4.14;74.95;100715.03;5105065;27;20663;-57
2022/11/24 04:19:54;;;;;;;;;;;;;;;4.17;74.93;100717.50;5109979;27;19938;-56
2022/11/24 04:22:20;;;;;;;;;;;;;;;4.18;74.95;100724.44;5109214;27;19920;-58
2022/11/24 04:24:45;;;;;;;;;;;;;;;4.19;75.28;100718.31;5108294;27;19928;-56
2022/11/24 04:27:10;;;;;;;;;;;;;;;4.18;75.00;100719.22;5104218;27;19923;-56
2022/11/24 04:29:36;;;;;;;;;;;;;;;4.16;75.46;100721.00;5108486;27;19967;-56
2022/11/24 04:32:01;;;;;;;;;;;;;;;4.17;75.36;100725.31;5102581;27;20015;-57
2022/11/24 04:34:26;;;;;;;;;;;;;;;4.15;75.11;100716.72;5108046;27;19966;-56
2022/11/24 04:36:52;;;;;;;;;;;;;;;4.16;75.18;100726.22;5102114;27;19916;-57
2022/11/24 04:39:17;;;;;;;;;;;;;;;4.13;75.31;100723.75;5107777;27;20065;-56
2022/11/24 04:41:42;;;;;;;;;;;;;;;4.16;75.49;100734.03;5104913;27;19916;-57
2022/11/24 04:44:08;;;;;;;;;;;;;;;4.15;75.24;100734.97;5105093;27;19965;-57
2022/11/24 04:46:33;;;;;;;;;;;;;;;4.14;75.12;100741.06;5107420;27;19923;-56
2022/11/24 04:48:58;;;;;;;;;;;;;;;4.13;75.29;100739.38;5107233;27;20466;-56
2022/11/24 04:51:24;;;;;;;;;;;;;;;4.11;75.38;100746.38;5107609;27;20026;-56
2022/11/24 04:53:49;;;;;;;;;;;;;;;4.09;75.26;100732.53;5106321;27;19924;-57
2022/11/24 04:56:14;;;;;;;;;;;;;;;4.08;75.68;100733.44;5105737;27;20290;-56
2022/11/24 04:58:40;;;;;;;;;;;;;;;4.09;75.33;100737.75;5101318;27;19927;-56
2022/11/24 05:01:07;;;;;;;;;;;;;;;4.06;75.44;100732.63;5107734;27;20018;-56
2022/11/24 05:03:32;;;;;;;;;;;;;;;4.07;75.80;100744.75;5103769;27;19922;-57
2022/11/24 05:05:58;;;;;;;;;;;;;;;4.07;75.75;100755.16;5107653;27;19916;-57
2022/11/24 05:08:23;;;;;;;;;;;;;;;4.07;75.89;100747.34;5105758;27;19994;-56
2022/11/24 05:10:49;;;;;;;;;;;;;;;4.07;75.55;100753.44;5104995;27;19920;-59
2022/11/24 05:13:14;;;;;;;;;;;;;;;4.10;75.58;100749.88;5106384;27;20278;-58
2022/11/24 05:15:40;;;;;;;;;;;;;;;4.11;75.75;100756.78;5107764;27;19927;-57
2022/11/24 05:18:10;;;;;;;;;;;;;;;4.12;75.83;100758.50;5101979;27;19916;-56
2022/11/24 05:20:36;;;;;;;;;;;;;;;4.12;75.45;100761.94;5099653;28;19916;-56
2022/11/24 05:23:03;;;;;;;;;;;;;;;4.14;75.40;100763.63;5098475;27;19927;-57
2022/11/24 05:25:28;;;;;;;;;;;;;;;4.13;75.79;100762.81;5100782;27;19959;-57
2022/11/24 05:27:53;;;;;;;;;;;;;;;4.14;75.41;100771.44;5087037;27;20043;-58
2022/11/24 05:30:19;;;;;;;;;;;;;;;4.17;75.51;100766.16;5095881;27;20022;-59
2022/11/24 05:32:44;;;;;;;;;;;;;;;4.14;75.20;100772.31;5104083;27;19932;-56
2022/11/24 05:35:09;;;;;;;;;;;;;;;4.12;75.53;100774.13;5106251;27;19920;-57
2022/11/24 05:37:35;;;;;;;;;;;;;;;4.09;75.68;100784.63;5098399;27;19927;-56
2022/11/24 05:40:01;;;;;;;;;;;;;;;4.09;75.24;100790.66;5106831;27;19924;-56
2022/11/24 05:42:41;;;;;;;;;;;;;;;4.07;75.58;100797.69;5106093;28;20490;-56
2022/11/24 05:45:11;;;;;;;;;;;;;;;4.01;75.90;100797.03;5108839;27;19920;-56
2022/11/24 05:47:37;;;;;;;;;;;;;;;3.98;75.81;100797.94;5103916;27;20355;-57
2022/11/24 05:50:03;;;;;;;;;;;;;;;3.96;76.26;100800.63;5102902;27;19927;-55
2022/11/24 05:52:28;;;;;;;;;;;;;;;3.94;76.15;100796.31;5103608;27;20025;-58
2022/11/24 05:54:54;;;;;;;;;;;;;;;3.98;76.24;100782.31;5108984;28;19977;-55
2022/11/24 05:57:19;;;;;;;;;;;;;;;3.98;75.99;100797.94;5106255;27;19927;-59
2022/11/24 05:59:44;;;;;;;;;;;;;;;4.01;76.18;100797.03;5109836;28;19947;-55
2022/11/24 06:02:10;;;;;;;;;;;;;;;3.97;76.13;100791.91;5103542;28;19959;-55
2022/11/24 06:04:36;;;;;;;;;;;;;;;3.94;76.21;100792.00;5107883;28;19965;-55
2022/11/24 06:07:01;;;;;;;;;;;;;;;3.99;76.22;100798.81;5106360;28;19926;-55
2022/11/24 06:09:26;;;;;;;;;;;;;;;4.00;76.04;100795.31;5105358;27;19915;-55
2022/11/24 06:11:52;;;;;;;;;;;;;;;4.00;76.32;100790.13;5108158;28;19956;-57
2022/11/24 06:14:17;;;;;;;;;;;;;;;4.00;76.01;100800.53;5110194;28;19959;-55
2022/11/24 06:16:42;;;;;;;;;;;;;;;4.02;76.34;100817.81;5109316;28;19930;-57
2022/11/24 06:19:11;;;;;;;;;;;;;;;4.04;76.07;100817.75;5110454;28;20332;-56
2022/11/24 06:21:36;;;;;;;;;;;;;;;4.01;75.89;100818.69;5102381;27;19925;-58
2022/11/24 06:24:02;;;;;;;;;;;;;;;4.00;75.83;100814.38;5107701;27;20494;-55
2022/11/24 06:26:27;;;;;;;;;;;;;;;3.95;76.07;100819.72;5105265;27;19958;-56
2022/11/24 06:28:52;;;;;;;;;;;;;;;3.95;75.97;100818.88;5107233;27;19947;-58
2022/11/24 06:31:18;;;;;;;;;;;;;;;3.94;76.46;100820.63;5103359;27;20027;-54
2022/11/24 06:33:43;;;;;;;;;;;;;;;3.93;76.53;100815.47;5104071;28;20298;-59
2022/11/24 06:36:10;;;;;;;;;;;;;;;3.91;76.26;100823.31;5108360;27;20509;-55
2022/11/24 06:38:36;;;;;;;;;;;;;;;3.91;76.59;100823.31;5105839;28;20433;-55
2022/11/24 06:41:02;;;;;;;;;;;;;;;3.94;76.66;100828.44;5088291;28;19924;-58
2022/11/24 06:43:28;;;;;;;;;;;;;;;3.97;76.48;100837.91;5110033;28;19923;-54
2022/11/24 06:45:54;;;;;;;;;;;;;;;3.96;76.34;100821.44;5107706;27;19966;-61
2022/11/24 06:48:20;;;;;;;;;;;;;;;3.96;76.19;100820.56;5099216;27;19915;-60
2022/11/24 06:50:45;;;;;;;;;;;;;;;3.97;76.32;100825.75;5100051;28;20271;-59
2022/11/24 06:53:11;;;;;;;;;;;;;;;4.00;76.04;100821.34;5100836;28;19956;-54
2022/11/24 06:55:37;;;;;;;;;;;;;;;4.06;76.04;100834.19;5098368;28;19980;-55
2022/11/24 06:58:03;;;;;;;;;;;;;;;4.06;75.60;100826.38;5099713;28;19924;-56
2022/11/24 07:00:30;;;;;;;;;;;;;;;4.06;75.74;100836.78;5098660;28;20394;-56
2022/11/24 07:02:57;;;;;;;;;;;;;;;4.05;75.93;100840.28;5108298;28;19959;-57
2022/11/24 07:05:22;;;;;;;;;;;;;;;4.06;76.01;100831.56;5077633;28;19981;-57
2022/11/24 07:07:47;;;;;;;;;;;;;;;4.07;76.24;100834.16;5093800;28;20361;-57
2022/11/24 07:10:13;;;;;;;;;;;;;;;4.06;75.91;100842.88;5106483;28;19931;-54
2022/11/24 07:12:38;;;;;;;;;;;;;;;4.09;75.95;100858.38;5105591;28;19986;-59
2022/11/24 07:15:03;;;;;;;;;;;;;;;4.13;75.71;100866.97;5106075;28;19919;-56
2022/11/24 07:17:29;;;;;;;;;;;;;;;4.10;76.08;100867.06;5106288;28;19932;-57
2022/11/24 07:19:54;;;;;;;;;;;;;;;4.09;76.05;100868.78;5106230;28;19969;-55
2022/11/24 07:22:19;;;;;;;;;;;;;;;4.08;75.55;100868.84;5100106;28;19920;-57
2022/11/24 07:24:45;;;;;;;;;;;;;;;4.10;75.54;100869.66;5096822;28;20040;-57
2022/11/24 07:27:10;;;;;;;;;;;;;;;4.06;75.82;100881.94;5106532;28;19926;-60
2022/11/24 07:29:35;;;;;;;;;;;;;;;4.04;75.86;100872.44;5079829;28;20399;-55
2022/11/24 07:32:01;;;;;;;;;;;;;;;4.04;76.07;100882.84;5099003;28;20343;-54
2022/11/24 07:34:26;;;;;;;;;;;;;;;4.01;76.09;100880.34;5106838;28;19954;-54
2022/11/24 07:36:51;;;;;;;;;;;;;;;4.02;76.01;100882.03;5098176;28;19943;-58
2022/11/24 07:39:17;;;;;;;;;;;;;;;4.01;75.88;100889.00;5090874;28;20014;-57
2022/11/24 07:41:42;;;;;;;;;;;;;;;3.97;75.77;100893.44;5093563;28;19968;-55
2022/11/24 07:44:07;;;;;;;;;;;;;;;4.02;75.92;100897.66;5106441;28;19920;-58
2022/11/24 07:46:33;;;;;;;;;;;;;;;4.00;76.26;100899.47;5109712;27;19989;-54
2022/11/24 07:48:58;;;;;;;;;;;;;;;3.96;76.19;100899.56;5094513;28;20378;-55
2022/11/24 07:51:23;;;;;;;;;;;;;;;3.99;76.19;100895.16;5116852;27;19963;-54
2022/11/24 07:53:48;;;;;;;;;;;;;;;4.00;76.17;100891.66;5102196;27;19977;-56
2022/11/24 07:56:14;;;;;;;;;;;;;;;3.96;76.29;100889.13;5097006;27;20381;-58
2022/11/24 07:58:39;;;;;;;;;;;;;;;3.96;76.35;100896.06;5075988;27;19947;-58
2022/11/24 08:01:12;;;;;;;;;;;;;;;3.97;76.58;100896.06;5076251;28;19928;-57
2022/11/24 08:03:37;;;;;;;;;;;;;;;4.01;76.58;100885.56;5096180;27;19950;-59
2022/11/24 08:06:02;;;;;;;;;;;;;;;4.01;76.52;100891.59;5104415;27;20002;-55
2022/11/24 08:08:32;;;;;;;;;;;;;;;4.03;76.81;100891.56;5110841;28;19920;-54
2022/11/24 08:10:57;;;;;;;;;;;;;;;4.04;76.64;100906.28;5109450;27;19951;-54
2022/11/24 08:13:22;;;;;;;;;;;;;;;4.09;76.25;100909.63;5112713;27;19923;-54
2022/11/24 08:15:47;;;;;;;;;;;;;;;4.11;76.17;100913.88;5102331;28;19962;-55
2022/11/24 08:18:13;;;;;;;;;;;;;;;4.11;76.16;100907.84;5108292;28;20396;-59
2022/11/24 08:20:38;;;;;;;;;;;;;;;4.11;76.27;100913.03;5102410;27;19928;-58
2022/11/24 08:23:03;;;;;;;;;;;;;;;4.14;76.16;100920.78;5097685;27;19920;-57
2022/11/24 08:25:32;;;;;;;;;;;;;;;4.18;76.19;100929.34;5101841;27;19924;-58
2022/11/24 08:28:01;;;;;;;;;;;;;;;4.21;76.10;100927.50;5108031;28;20003;-55
2022/11/24 08:30:27;;;;;;;;;;;;;;;4.19;75.74;100931.91;5106011;28;19920;-55
2022/11/24 08:32:52;;;;;;;;;;;;;;;4.21;75.98;100937.94;5103626;27;20053;-54
2022/11/24 08:35:17;;;;;;;;;;;;;;;4.22;75.93;100921.41;5107707;28;19931;-58
2022/11/24 08:37:43;;;;;;;;;;;;;;;4.23;76.14;100922.28;5105107;28;19927;-55
2022/11/24 08:40:08;;;;;;;;;;;;;;;4.25;76.00;100916.09;5094456;27;19954;-57
2022/11/24 08:42:34;;;;;;;;;;;;;;;4.25;76.00;100923.91;5101887;27;19958;-58
2022/11/24 08:44:59;;;;;;;;;;;;;;;4.26;75.87;100917.81;5102587;27;19916;-54
2022/11/24 08:47:24;;;;;;;;;;;;;;;4.25;75.37;100931.75;5104893;28;20409;-55
2022/11/24 08:49:50;;;;;;;;;;;;;;;4.26;75.58;100930.84;5108957;28;20294;-58
2022/11/24 08:52:15;;;;;;;;;;;;;;;4.29;75.46;100924.69;5105522;28;19932;-61
2022/11/24 08:54:43;;;;;;;;;;;;;;;4.30;75.45;100928.16;5102618;28;19923;-55
2022/11/24 08:57:08;;;;;;;;;;;;;;;4.34;75.44;100924.53;5109250;27;19927;-58
2022/11/24 08:59:34;;;;;;;;;;;;;;;4.38;75.68;100931.38;5108838;27;19920;-54
2022/11/24 09:01:59;;;;;;;;;;;;;;;4.41;75.78;100931.31;5103804;28;20424;-54
2022/11/24 09:04:24;;;;;;;;;;;;;;;4.41;75.56;100932.13;5104826;27;19930;-58
2022/11/24 09:06:50;;;;;;;;;;;;;;;4.46;75.29;100934.63;5102452;27;19928;-55
2022/11/24 09:09:15;;;;;;;;;;;;;;;4.49;75.38;100941.50;5104515;28;19920;-56
2022/11/24 09:11:40;;;;;;;;;;;;;;;4.52;75.50;100933.59;5095275;27;19932;-60
2022/11/24 09:14:06;;;;;;;;;;;;;;;4.55;75.10;100942.19;5112693;27;19923;-54
2022/11/24 09:16:31;;;;;;;;;;;;;;;4.57;74.92;100931.69;5101749;27;19947;-56
2022/11/24 09:18:58;;;;;;;;;;;;;;;4.61;74.78;100933.31;5101032;27;19927;-55
2022/11/24 09:21:23;;;;;;;;;;;;;;;4.65;75.00;100934.06;5099859;27;20310;-60
2022/11/24 09:23:50;;;;;;;;;;;;;;;4.68;74.52;100940.06;5103567;27;20378;-56
2022/11/24 09:26:17;;;;;;;;;;;;;;;4.68;74.89;100933.97;5104418;27;19955;-54
2022/11/24 09:28:43;;;;;;;;;;;;;;;4.69;74.47;100944.34;5107380;28;19920;-55
2022/11/24 09:31:09;;;;;;;;;;;;;;;4.72;74.62;100946.03;5110360;27;19939;-55
2022/11/24 09:33:35;;;;;;;;;;;;;;;4.75;74.47;100945.09;5111516;28;19915;-57
2022/11/24 09:36:00;;;;;;;;;;;;;;;4.73;74.56;100947.75;5107669;27;19916;-54
2022/11/24 09:38:26;;;;;;;;;;;;;;;4.74;74.44;100946.84;5104336;27;19946;-63
2022/11/24 09:40:52;;;;;;;;;;;;;;;4.74;74.34;100939.03;5106183;27;19919;-55
2022/11/24 09:43:23;;;;;;;;;;;;;;;4.71;74.17;100942.56;5106182;27;20288;-55
2022/11/24 09:45:54;;;;;;;;;;;;;;;4.70;74.46;100947.84;5110157;27;19916;-57
2022/11/24 09:48:19;;;;;;;;;;;;;;;4.71;74.59;100952.16;5099234;27;19924;-57
2022/11/24 09:50:47;;;;;;;;;;;;;;;4.73;74.46;100951.19;5102799;27;19915;-55
2022/11/24 09:53:18;;;;;;;;;;;;;;;4.77;74.62;100946.72;5108112;27;19931;-58
2022/11/24 09:55:43;;;;;;;;;;;;;;;4.81;74.42;100950.97;5104458;28;19920;-56
2022/11/24 09:58:27;;;;;;;;;;;;;;;4.81;73.89;100947.50;5106262;28;19920;-58
2022/11/24 10:00:54;;;;;;;;;;;;;;;4.80;74.01;100951.03;5102956;28;20442;-58
2022/11/24 10:03:22;;;;;;;;;;;;;;;4.78;74.11;100951.03;5105981;27;19924;-56
2022/11/24 10:05:50;;;;;;;;;;;;;;;4.80;73.98;100954.47;5099139;28;19923;-54
2022/11/24 10:08:15;;;;;;;;;;;;;;;4.81;74.05;100953.56;5103414;28;19923;-59
2022/11/24 10:10:51;;;;;;;;;;;;;;;4.83;74.27;100956.97;5103301;27;19981;-57
2022/11/24 10:13:32;;;;;;;;;;;;;;;4.86;74.39;100954.28;5107362;27;19928;-56
2022/11/24 10:15:58;;;;;;;;;;;;;;;4.87;74.14;100950.78;5105857;28;20397;-56
2022/11/24 10:18:26;;;;;;;;;;;;;;;4.88;73.90;100947.28;5113800;27;20018;-57
2022/11/24 10:20:51;;;;;;;;;;;;;;;4.91;74.21;100940.25;5108868;27;19926;-61
2022/11/24 10:23:25;;;;;;;;;;;;;;;4.95;74.28;100947.06;5095881;27;19920;-56
2022/11/24 10:25:58;;;;;;;;;;;;;;;5.01;74.35;100957.31;5099456;27;20033;-58
2022/11/24 10:28:34;;;;;;;;;;;;;;;5.02;74.02;100964.25;5107349;27;19919;-59
2022/11/24 10:31:18;;;;;;;;;;;;;;;5.04;73.98;100975.50;5109736;27;19916;-58
2022/11/24 10:33:45;;;;;;;;;;;;;;;5.08;74.17;100977.09;5103153;27;19926;-58
2022/11/24 10:36:15;;;;;;;;;;;;;;;5.07;74.21;100977.97;5107951;27;20472;-57
2022/11/24 10:38:58;;;;;;;;;;;;;;;5.09;73.92;100976.19;5104521;28;19951;-58
2022/11/24 10:41:37;;;;;;;;;;;;;;;5.10;74.13;100977.91;5111539;27;20060;-58
2022/11/24 10:44:02;;;;;;;;;;;;;;;5.15;73.67;100973.41;5105650;27;30018;-58
2022/11/24 10:46:31;;;;;;;;;;;;;;;5.21;73.27;100974.13;5102991;28;20627;-58
2022/11/24 10:48:59;;;;;;;;;;;;;;;5.23;73.26;100977.50;5102854;28;19920;-57
2022/11/24 10:51:43;;;;;;;;;;;;;;;5.25;73.34;100975.69;5100943;27;20023;-60
2022/11/24 10:54:28;;;;;;;;;;;;;;;5.18;73.45;100978.53;5108957;28;19911;-58
2022/11/24 10:56:54;;;;;;;;;;;;;;;5.20;73.74;100983.69;5105578;28;19958;-58
2022/11/24 10:59:21;;;;;;;;;;;;;;;5.18;73.73;100980.25;5108971;28;19916;-57
2022/11/24 11:01:46;;;;;;;;;;;;;;;5.17;73.40;100979.44;5105446;28;19922;-59
2022/11/24 11:04:17;;;;;;;;;;;;;;;5.17;73.71;100973.34;5097814;28;19920;-59
2022/11/24 11:06:43;;;;;;;;;;;;;;;5.17;73.58;100976.81;5093059;28;19922;-57
2022/11/24 11:09:08;;;;;;;;;;;;;;;5.19;73.95;100971.53;5088328;28;25746;-58
2022/11/24 11:11:34;;;;;;;;;;;;;;;5.21;73.60;100977.56;5103905;28;19920;-57
2022/11/24 11:14:04;;;;;;;;;;;;;;;5.24;73.34;100977.47;5107766;28;20006;-58
2022/11/24 11:16:29;;;;;;;;;;;;;;;5.23;73.58;100972.28;5095347;28;19924;-58
2022/11/24 11:18:55;;;;;;;;;;;;;;;5.24;73.36;100979.22;5102717;28;19923;-57
2022/11/24 11:21:30;;;;;;;;;;;;;;;5.26;73.31;100980.91;5100009;27;20375;-58
2022/11/24 11:23:55;;;;;;;;;;;;;;;5.26;73.12;100980.03;5109287;28;19920;-57
2022/11/24 11:26:23;;;;;;;;;;;;;;;5.31;73.20;100980.75;5107648;28;20379;-57
2022/11/24 11:29:02;;;;;;;;;;;;;;;5.29;72.93;100987.75;5105830;27;19922;-58
2022/11/24 11:31:27;;;;;;;;;;;;;;;5.27;72.70;100984.34;5108388;28;19916;-58
2022/11/24 11:33:54;;;;;;;;;;;;;;;5.28;72.89;100980.84;5108612;27;19918;-57
2022/11/24 11:36:20;;;;;;;;;;;;;;;5.25;72.85;100981.78;5104903;27;19923;-59
2022/11/24 11:38:48;;;;;;;;;;;;;;;5.25;73.20;100975.69;5111190;28;20285;-58
2022/11/24 11:41:19;;;;;;;;;;;;;;;5.22;73.26;100983.66;5113767;27;19927;-58
2022/11/24 11:43:47;;;;;;;;;;;;;;;5.18;73.01;100980.25;5111006;27;20014;-58
2022/11/24 11:46:17;;;;;;;;;;;;;;;5.15;73.21;100978.63;5118718;27;19911;-57
2022/11/24 11:48:45;;;;;;;;;;;;;;;5.14;73.60;100987.34;5106849;27;20003;-59
2022/11/24 11:51:29;;;;;;;;;;;;;;;5.15;73.73;100986.44;5107037;28;19935;-58
2022/11/24 11:54:30;;;;;;;;;;;;;;;5.16;73.84;100987.28;5111112;28;20287;-58
2022/11/24 11:57:01;;;;;;;;;;;;;;;5.21;73.59;100982.78;5026050;28;20468;-58
2022/11/24 11:59:53;;;;;;;;;;;;;;;5.21;73.30;100984.56;5098810;27;19915;-58
2022/11/24 12:02:36;;;;;;;;;;;;;;;5.21;73.70;100982.78;5090550;28;19923;-58
2022/11/24 12:05:10;;;;;;;;;;;;;;;5.27;73.70;100979.13;5100715;27;20367;-59
2022/11/24 12:07:35;;;;;;;;;;;;;;;5.28;73.60;100986.06;5111276;28;19927;-58
2022/11/24 12:10:19;;;;;;;;;;;;;;;5.29;73.14;100982.53;5111216;28;19912;-58
2022/11/24 12:13:03;;;;;;;;;;;;;;;5.31;72.88;100985.97;5115820;27;19922;-58
2022/11/24 12:15:40;;;;;;;;;;;;;;;5.30;73.17;100985.09;5105808;27;19919;-58
2022/11/24 12:18:44;;;;;;;;;;;;;;;5.29;72.78;100982.53;5110280;27;19916;-58
2022/11/24 12:21:09;;;;;;;;;;;;;;;5.26;72.84;100982.63;5058851;28;19924;-58
2022/11/24 12:23:40;;;;;;;;;;;;;;;5.26;73.10;100977.41;5072938;28;19916;-58
2022/11/24 12:26:23;;;;;;;;;;;;;;;5.28;72.94;100979.09;5087285;28;19951;-59
2022/11/24 12:28:57;;;;;;;;;;;;;;;5.28;73.04;100986.06;5109621;28;19915;-59
2022/11/24 12:31:48;;;;;;;;;;;;;;;5.28;72.85;100981.69;5104380;28;19919;-60
2022/11/24 12:34:19;;;;;;;;;;;;;;;5.27;73.08;100985.22;5107225;27;19969;-61
2022/11/24 12:36:45;;;;;;;;;;;;;;;5.31;73.33;100994.63;5105992;28;19955;-57
2022/11/24 12:39:13;;;;;;;;;;;;;;;5.29;73.20;100992.97;5107121;28;20600;-59
2022/11/24 12:41:41;;;;;;;;;;;;;;;5.31;73.33;101007.69;5109873;27;19911;-57
2022/11/24 12:44:14;;;;;;;;;;;;;;;5.33;72.83;101011.09;5106678;27;19919;-58
2022/11/24 12:47:04;;;;;;;;;;;;;;;5.33;72.63;101005.03;5108489;28;20393;-57
2022/11/24 12:49:30;;;;;;;;;;;;;;;5.38;72.78;101008.34;5097190;28;19919;-59
2022/11/24 12:52:15;;;;;;;;;;;;;;;5.34;72.53;101006.75;5112466;27;20008;-57
2022/11/24 12:54:40;;;;;;;;;;;;;;;5.33;73.04;101005.03;5103774;28;19916;-58